Time;durP1;ratioP1;P1;durP2;ratioP2;P2;SDS_P1;SDS_P2;PMS_P1;PMS_P2;Temp;Humidity;BMP_temperature;BMP_pressure;BME280_temperature;BME280_humidity;BME280_pressure;Samples;Min_cycle;Max_cycle;Signal;HPM_P1;HPM_P2
2022/10/12 00:00:12;;;;;;;;;;;8.10;99.90;;;;;;5054221;28;19979;-80
2022/10/12 00:02:39;;;;;;;;;;;8.10;99.90;;;;;;5054564;28;19959;-78
2022/10/12 00:05:05;;;;;;;;;;;8.10;99.90;;;;;;5055825;28;19916;-79
2022/10/12 00:07:30;;;;;;;;;;;8.20;99.90;;;;;;5054046;28;20430;-79
2022/10/12 00:09:56;;;;;;;;;;;8.10;99.90;;;;;;5054395;28;19958;-79
2022/10/12 00:12:21;;;;;;;;;;;8.10;99.90;;;;;;5054244;28;19909;-80
2022/10/12 00:14:47;;;;;;;;;;;8.20;99.90;;;;;;5053768;28;19924;-79
2022/10/12 00:17:12;;;;;;;;;;;8.20;99.90;;;;;;5054671;28;19962;-79
2022/10/12 00:19:38;;;;;;;;;;;8.10;99.90;;;;;;5054117;28;19969;-79
2022/10/12 00:22:03;;;;;;;;;;;8.10;99.90;;;;;;5053912;28;19953;-79
2022/10/12 00:24:29;;;;;;;;;;;8.10;99.90;;;;;;5054064;28;19913;-79
2022/10/12 00:26:54;;;;;;;;;;;8.10;99.90;;;;;;5056050;28;19912;-79
2022/10/12 00:29:20;;;;;;;;;;;8.10;99.90;;;;;;5055088;28;19959;-79
2022/10/12 00:31:45;;;;;;;;;;;8.00;99.90;;;;;;5054215;28;20281;-79
2022/10/12 00:34:10;;;;;;;;;;;8.10;99.90;;;;;;5053821;28;19913;-79
2022/10/12 00:36:36;;;;;;;;;;;8.00;99.90;;;;;;5054036;28;19948;-79
2022/10/12 00:39:06;;;;;;;;;;;8.00;99.90;;;;;;5055072;28;19919;-80
2022/10/12 00:41:32;;;;;;;;;;;8.00;99.90;;;;;;5055114;28;20366;-79
2022/10/12 00:43:58;;;;;;;;;;;8.00;99.90;;;;;;5055051;28;19913;-80
2022/10/12 00:46:38;;;;;;;;;;;7.90;99.90;;;;;;5053524;28;19909;-79
2022/10/12 00:49:22;;;;;;;;;;;7.90;99.90;;;;;;5054900;28;19908;-79
2022/10/12 00:51:50;;;;;;;;;;;7.90;99.90;;;;;;5054217;28;19909;-79
2022/10/12 00:54:17;;;;;;;;;;;7.90;99.90;;;;;;5053590;28;19920;-80
2022/10/12 00:56:43;;;;;;;;;;;7.90;99.90;;;;;;5054973;28;19909;-79
2022/10/12 00:59:15;;;;;;;;;;;7.90;99.90;;;;;;5053380;28;19971;-79
2022/10/12 01:01:41;;;;;;;;;;;7.90;99.90;;;;;;5053417;28;19952;-79
2022/10/12 01:04:07;;;;;;;;;;;7.90;99.90;;;;;;5053032;28;19909;-78
2022/10/12 01:06:32;;;;;;;;;;;7.90;99.90;;;;;;5055113;28;19913;-80
2022/10/12 01:08:58;;;;;;;;;;;7.90;99.90;;;;;;5053675;28;19962;-79
2022/10/12 01:11:24;;;;;;;;;;;7.90;99.90;;;;;;5055455;28;19908;-79
2022/10/12 01:13:49;;;;;;;;;;;7.90;99.90;;;;;;5054182;28;19916;-80
2022/10/12 01:16:24;;;;;;;;;;;7.90;99.90;;;;;;5052672;28;20305;-78
2022/10/12 01:18:58;;;;;;;;;;;7.90;99.90;;;;;;5055226;28;19913;-79
2022/10/12 01:21:24;;;;;;;;;;;7.90;99.90;;;;;;5055321;28;19909;-78
2022/10/12 01:24:08;;;;;;;;;;;7.90;99.90;;;;;;5052330;28;19944;-78
2022/10/12 01:26:45;;;;;;;;;;;7.90;99.90;;;;;;5055106;28;20006;-79
2022/10/12 01:29:20;;;;;;;;;;;7.90;99.90;;;;;;5053051;28;20275;-79
2022/10/12 01:31:48;;;;;;;;;;;7.90;99.90;;;;;;5055572;28;19913;-79
2022/10/12 01:34:46;;;;;;;;;;;7.90;99.90;;;;;;5053736;28;20263;-79
2022/10/12 01:37:22;;;;;;;;;;;7.90;99.90;;;;;;5031007;28;19916;-79
2022/10/12 01:39:55;;;;;;;;;;;7.90;99.90;;;;;;5052523;28;20408;-80
2022/10/12 01:42:28;;;;;;;;;;;8.00;99.90;;;;;;5052548;28;19908;-79
2022/10/12 01:45:03;;;;;;;;;;;8.00;99.90;;;;;;5052566;28;20013;-79
2022/10/12 01:47:29;;;;;;;;;;;8.00;99.90;;;;;;5054036;28;19916;-79
2022/10/12 01:49:56;;;;;;;;;;;8.10;99.90;;;;;;5055162;28;20275;-79
2022/10/12 01:52:26;;;;;;;;;;;8.10;99.90;;;;;;5052543;28;20329;-80
2022/10/12 01:55:15;;;;;;;;;;;8.10;99.90;;;;;;5053280;28;19915;-78
2022/10/12 01:57:59;;;;;;;;;;;8.10;99.90;;;;;;5053942;28;20333;-79
2022/10/12 02:00:24;;;;;;;;;;;8.20;99.90;;;;;;5052116;28;20398;-80
2022/10/12 02:02:56;;;;;;;;;;;8.10;99.90;;;;;;5053473;28;19916;-79
2022/10/12 02:05:34;;;;;;;;;;;8.20;99.90;;;;;;5052270;28;19923;-79
2022/10/12 02:08:14;;;;;;;;;;;8.10;99.90;;;;;;5052728;28;19908;-79
2022/10/12 02:10:50;;;;;;;;;;;8.10;99.90;;;;;;5053204;28;19916;-79
2022/10/12 02:13:17;;;;;;;;;;;8.10;99.90;;;;;;5054301;28;19913;-80
2022/10/12 02:15:43;;;;;;;;;;;8.10;99.90;;;;;;5054941;28;20305;-79
2022/10/12 02:18:12;;;;;;;;;;;8.20;99.90;;;;;;5051877;28;20020;-79
2022/10/12 02:20:39;;;;;;;;;;;8.10;99.90;;;;;;5051559;28;20019;-79
2022/10/12 02:23:04;;;;;;;;;;;8.10;99.90;;;;;;5051100;28;19948;-79
2022/10/12 02:25:31;;;;;;;;;;;8.10;99.90;;;;;;5051478;28;19916;-79
2022/10/12 02:28:12;;;;;;;;;;;8.10;99.90;;;;;;5052984;28;19909;-79
2022/10/12 02:30:51;;;;;;;;;;;8.00;99.90;;;;;;5051514;28;19909;-79
2022/10/12 02:33:22;;;;;;;;;;;8.00;99.90;;;;;;5051895;28;20023;-79
2022/10/12 02:35:53;;;;;;;;;;;8.00;99.90;;;;;;5051423;28;20493;-80
2022/10/12 02:38:24;;;;;;;;;;;8.00;99.90;;;;;;5051498;28;19913;-79
2022/10/12 02:40:51;;;;;;;;;;;8.00;99.90;;;;;;5053356;28;20346;-79
2022/10/12 02:43:46;;;;;;;;;;;8.00;99.90;;;;;;5051797;28;19908;-78
2022/10/12 02:46:12;;;;;;;;;;;8.00;99.90;;;;;;5042988;28;19960;-79
2022/10/12 02:48:38;;;;;;;;;;;8.00;99.90;;;;;;5051735;28;19916;-79
2022/10/12 02:51:05;;;;;;;;;;;8.00;99.90;;;;;;5051996;28;19916;-79
2022/10/12 02:53:31;;;;;;;;;;;7.90;99.90;;;;;;5052960;28;19909;-79
2022/10/12 02:56:04;;;;;;;;;;;7.90;99.90;;;;;;5052408;28;19909;-79
2022/10/12 02:58:29;;;;;;;;;;;7.90;99.90;;;;;;5052943;28;20010;-79
2022/10/12 03:00:55;;;;;;;;;;;7.80;99.90;;;;;;5053416;28;19912;-79
2022/10/12 03:03:20;;;;;;;;;;;7.80;99.90;;;;;;5052291;28;20366;-77
2022/10/12 03:05:46;;;;;;;;;;;7.70;99.90;;;;;;5051250;28;19923;-79
2022/10/12 03:08:11;;;;;;;;;;;7.70;99.90;;;;;;5051817;28;19913;-79
2022/10/12 03:10:37;;;;;;;;;;;7.80;99.90;;;;;;5052791;28;19909;-79
2022/10/12 03:13:02;;;;;;;;;;;7.70;99.90;;;;;;5051735;28;19908;-79
2022/10/12 03:15:28;;;;;;;;;;;7.70;99.90;;;;;;5051987;28;20363;-79
2022/10/12 03:17:53;;;;;;;;;;;7.80;99.90;;;;;;5052361;28;19909;-80
2022/10/12 03:20:19;;;;;;;;;;;7.70;99.90;;;;;;5051485;28;20401;-79
2022/10/12 03:22:44;;;;;;;;;;;7.70;99.90;;;;;;5051959;28;20510;-79
2022/10/12 03:25:10;;;;;;;;;;;7.70;99.90;;;;;;5052212;28;19934;-79
2022/10/12 03:27:35;;;;;;;;;;;7.70;99.90;;;;;;5051848;28;19908;-79
2022/10/12 03:30:01;;;;;;;;;;;7.70;99.90;;;;;;5053034;28;19917;-80
2022/10/12 03:32:26;;;;;;;;;;;7.70;99.90;;;;;;5051539;28;19966;-79
2022/10/12 03:34:52;;;;;;;;;;;7.70;99.90;;;;;;5055655;28;19909;-79
2022/10/12 03:37:17;;;;;;;;;;;7.70;99.90;;;;;;5056423;28;20362;-79
2022/10/12 03:39:43;;;;;;;;;;;7.70;99.90;;;;;;5056487;28;19917;-78
2022/10/12 03:42:09;;;;;;;;;;;7.70;99.90;;;;;;5056462;28;19909;-79
2022/10/12 03:44:35;;;;;;;;;;;7.70;99.90;;;;;;5057233;28;19915;-79
2022/10/12 03:47:00;;;;;;;;;;;7.60;99.90;;;;;;5056049;28;19909;-80
2022/10/12 03:49:26;;;;;;;;;;;7.70;99.90;;;;;;5056281;28;19984;-79
2022/10/12 03:51:51;;;;;;;;;;;7.60;99.90;;;;;;5056942;28;19916;-79
2022/10/12 03:54:16;;;;;;;;;;;7.60;99.90;;;;;;5055106;28;19909;-79
2022/10/12 03:56:42;;;;;;;;;;;7.60;99.90;;;;;;5055294;28;19908;-80
2022/10/12 03:59:07;;;;;;;;;;;7.60;99.90;;;;;;5055400;28;19912;-79
2022/10/12 04:01:33;;;;;;;;;;;7.50;99.90;;;;;;5056923;28;19913;-79
2022/10/12 04:03:58;;;;;;;;;;;7.50;99.90;;;;;;5055634;28;19913;-79
2022/10/12 04:06:24;;;;;;;;;;;7.50;99.90;;;;;;5055490;28;19921;-79
2022/10/12 04:08:49;;;;;;;;;;;7.50;99.90;;;;;;5056273;28;20328;-79
2022/10/12 04:11:15;;;;;;;;;;;7.40;99.90;;;;;;5056396;28;19977;-79
2022/10/12 04:13:41;;;;;;;;;;;7.50;99.90;;;;;;5056141;28;20397;-79
2022/10/12 04:16:08;;;;;;;;;;;7.40;99.90;;;;;;5055439;28;19909;-79
2022/10/12 04:18:33;;;;;;;;;;;7.50;99.90;;;;;;5054946;28;19913;-79
2022/10/12 04:20:59;;;;;;;;;;;7.40;99.90;;;;;;5054364;28;19931;-79
2022/10/12 04:23:25;;;;;;;;;;;7.40;99.90;;;;;;5054688;28;20023;-79
2022/10/12 04:25:50;;;;;;;;;;;7.40;99.90;;;;;;5054378;28;19952;-79
2022/10/12 04:28:16;;;;;;;;;;;7.40;99.90;;;;;;5056268;28;19917;-79
2022/10/12 04:30:41;;;;;;;;;;;7.40;99.90;;;;;;5054078;28;19909;-79
2022/10/12 04:33:07;;;;;;;;;;;7.50;99.90;;;;;;5054797;28;19908;-79
2022/10/12 04:35:32;;;;;;;;;;;7.50;99.90;;;;;;5055189;28;19909;-79
2022/10/12 04:37:58;;;;;;;;;;;7.60;99.90;;;;;;5054670;28;19996;-79
2022/10/12 04:40:23;;;;;;;;;;;7.60;99.90;;;;;;5054148;28;19987;-79
2022/10/12 04:42:49;;;;;;;;;;;7.60;99.90;;;;;;5054100;28;19909;-80
2022/10/12 04:45:14;;;;;;;;;;;7.70;99.90;;;;;;5052671;28;19913;-79
2022/10/12 04:47:40;;;;;;;;;;;7.70;99.90;;;;;;5053615;28;19965;-79
2022/10/12 04:50:05;;;;;;;;;;;7.70;99.90;;;;;;5053469;28;19913;-79
2022/10/12 04:52:31;;;;;;;;;;;7.70;99.90;;;;;;5054982;28;19955;-79
2022/10/12 04:54:56;;;;;;;;;;;7.70;99.90;;;;;;5054296;28;19909;-79
2022/10/12 04:57:22;;;;;;;;;;;7.70;99.90;;;;;;5055220;28;20278;-78
2022/10/12 04:59:47;;;;;;;;;;;7.70;99.90;;;;;;5053616;28;19912;-80
2022/10/12 05:02:13;;;;;;;;;;;7.70;99.90;;;;;;5054835;28;19909;-78
2022/10/12 05:07:08;;;;;;;;;;;7.80;99.90;;;;;;5057370;28;19925;-77
2022/10/12 05:09:33;;;;;;;;;;;7.70;99.90;;;;;;5058604;28;20285;-78
2022/10/12 05:11:59;;;;;;;;;;;7.80;99.90;;;;;;5058308;28;19909;-78
2022/10/12 05:14:24;;;;;;;;;;;7.70;99.90;;;;;;5058502;28;19917;-77
2022/10/12 05:16:50;;;;;;;;;;;7.70;99.90;;;;;;5058014;28;19913;-77
2022/10/12 05:19:15;;;;;;;;;;;7.70;99.90;;;;;;5058325;28;19913;-77
2022/10/12 05:21:41;;;;;;;;;;;7.70;99.90;;;;;;5058927;28;19909;-77
2022/10/12 05:24:06;;;;;;;;;;;7.60;99.90;;;;;;5056641;28;20362;-77
2022/10/12 05:26:32;;;;;;;;;;;7.60;99.90;;;;;;5056588;28;19966;-78
2022/10/12 05:28:57;;;;;;;;;;;7.60;99.90;;;;;;5058317;28;19909;-77
2022/10/12 05:31:23;;;;;;;;;;;7.50;99.90;;;;;;5058197;28;19920;-77
2022/10/12 05:33:48;;;;;;;;;;;7.50;99.90;;;;;;5057801;28;19908;-78
2022/10/12 05:36:14;;;;;;;;;;;7.50;99.90;;;;;;5057686;28;19952;-78
2022/10/12 05:38:39;;;;;;;;;;;7.50;99.90;;;;;;5058149;28;19966;-76
2022/10/12 05:41:05;;;;;;;;;;;7.50;99.90;;;;;;5057438;28;19909;-77
2022/10/12 05:43:30;;;;;;;;;;;7.50;99.90;;;;;;5039734;28;19969;-78
2022/10/12 05:45:56;;;;;;;;;;;7.50;99.90;;;;;;5057457;28;19977;-78
2022/10/12 05:48:21;;;;;;;;;;;7.50;99.90;;;;;;5058145;28;19965;-76
2022/10/12 05:50:47;;;;;;;;;;;7.50;99.90;;;;;;5057377;28;19931;-78
2022/10/12 05:53:12;;;;;;;;;;;7.40;99.90;;;;;;5057263;28;19991;-78
2022/10/12 05:55:37;;;;;;;;;;;7.50;99.90;;;;;;5056975;28;19909;-76
2022/10/12 05:58:03;;;;;;;;;;;7.50;99.90;;;;;;5054696;28;19912;-77
2022/10/12 06:00:29;;;;;;;;;;;7.40;99.90;;;;;;5056305;28;19940;-77
2022/10/12 06:02:54;;;;;;;;;;;7.40;99.90;;;;;;5039132;28;19912;-77
2022/10/12 06:05:21;;;;;;;;;;;7.40;99.90;;;;;;5056956;28;20337;-78
2022/10/12 06:07:46;;;;;;;;;;;7.40;99.90;;;;;;5058857;28;19959;-77
2022/10/12 06:10:12;;;;;;;;;;;7.40;99.90;;;;;;5059038;28;19931;-77
2022/10/12 06:12:37;;;;;;;;;;;7.40;99.90;;;;;;5058887;28;19916;-78
2022/10/12 06:15:03;;;;;;;;;;;7.40;99.90;;;;;;5057315;28;19920;-78
2022/10/12 06:17:28;;;;;;;;;;;7.40;99.90;;;;;;5059504;28;19951;-78
2022/10/12 06:19:54;;;;;;;;;;;7.40;99.90;;;;;;5058447;28;19917;-77
2022/10/12 06:22:19;;;;;;;;;;;7.50;99.90;;;;;;5059239;28;19909;-78
2022/10/12 06:24:45;;;;;;;;;;;7.50;99.90;;;;;;5040812;28;19913;-77
2022/10/12 06:27:10;;;;;;;;;;;7.50;99.90;;;;;;5059114;28;19980;-77
2022/10/12 06:29:37;;;;;;;;;;;7.50;99.90;;;;;;5058837;28;19916;-77
2022/10/12 06:32:02;;;;;;;;;;;7.60;99.90;;;;;;5041195;28;19913;-78
2022/10/12 06:34:28;;;;;;;;;;;7.60;99.90;;;;;;5040974;28;20042;-78
2022/10/12 06:36:53;;;;;;;;;;;7.60;99.90;;;;;;5058061;28;19916;-78
2022/10/12 06:39:20;;;;;;;;;;;7.70;99.90;;;;;;5058077;28;19912;-78
2022/10/12 06:41:46;;;;;;;;;;;7.80;99.90;;;;;;5057453;28;20259;-78
2022/10/12 06:44:11;;;;;;;;;;;7.80;99.90;;;;;;5058602;28;19951;-78
2022/10/12 06:46:37;;;;;;;;;;;7.90;99.90;;;;;;5057901;28;20374;-77
2022/10/12 06:49:02;;;;;;;;;;;8.00;99.90;;;;;;5039146;28;19970;-77
2022/10/12 06:51:27;;;;;;;;;;;8.00;99.90;;;;;;5056622;28;19909;-77
2022/10/12 06:53:54;;;;;;;;;;;8.10;99.90;;;;;;5056825;28;20374;-78
2022/10/12 06:56:19;;;;;;;;;;;8.10;99.90;;;;;;5056680;28;19940;-78
2022/10/12 06:58:45;;;;;;;;;;;8.20;99.90;;;;;;5055496;28;20324;-77
2022/10/12 07:01:10;;;;;;;;;;;8.30;99.90;;;;;;5056434;28;20004;-77
2022/10/12 07:03:36;;;;;;;;;;;8.30;99.90;;;;;;5055966;28;19962;-77
2022/10/12 07:06:19;;;;;;;;;;;8.40;99.90;;;;;;5055730;28;19923;-78
2022/10/12 07:08:44;;;;;;;;;;;8.50;99.90;;;;;;5041682;28;19909;-78
2022/10/12 07:11:11;;;;;;;;;;;8.70;99.90;;;;;;5059957;28;19913;-77
2022/10/12 07:13:36;;;;;;;;;;;8.70;99.90;;;;;;5059321;28;19955;-77
2022/10/12 07:16:02;;;;;;;;;;;8.80;99.90;;;;;;5059004;28;19913;-77
2022/10/12 07:18:27;;;;;;;;;;;8.90;99.90;;;;;;5059258;28;19913;-78
2022/10/12 07:20:56;;;;;;;;;;;9.00;99.90;;;;;;5059707;28;19916;-77
2022/10/12 07:23:21;;;;;;;;;;;9.10;99.90;;;;;;5059801;28;19962;-76
2022/10/12 07:25:51;;;;;;;;;;;9.20;99.90;;;;;;5041868;28;20341;-78
2022/10/12 07:28:17;;;;;;;;;;;9.30;99.90;;;;;;5060219;28;20324;-77
2022/10/12 07:30:42;;;;;;;;;;;9.40;99.90;;;;;;5059733;28;19939;-77
2022/10/12 07:33:08;;;;;;;;;;;9.40;99.90;;;;;;5060090;28;19908;-77
2022/10/12 07:35:33;;;;;;;;;;;9.50;99.90;;;;;;5059353;28;19971;-78
2022/10/12 07:37:59;;;;;;;;;;;9.50;99.90;;;;;;5041746;28;20286;-78
2022/10/12 07:40:25;;;;;;;;;;;9.60;99.90;;;;;;5059947;28;20422;-78
2022/10/12 07:42:51;;;;;;;;;;;9.60;99.90;;;;;;5060659;28;19909;-78
2022/10/12 07:45:16;;;;;;;;;;;9.70;99.90;;;;;;5058210;28;19952;-77
2022/10/12 07:47:42;;;;;;;;;;;9.80;99.90;;;;;;5059164;28;19920;-77
2022/10/12 07:50:08;;;;;;;;;;;9.90;99.90;;;;;;5059816;28;20132;-77
2022/10/12 07:52:34;;;;;;;;;;;9.90;99.90;;;;;;5059419;28;19951;-77
2022/10/12 07:54:59;;;;;;;;;;;9.90;99.90;;;;;;5058705;28;19908;-77
2022/10/12 07:57:25;;;;;;;;;;;9.90;99.90;;;;;;5040980;28;19916;-77
2022/10/12 07:59:50;;;;;;;;;;;10.00;99.90;;;;;;5058667;28;19919;-77
2022/10/12 08:02:16;;;;;;;;;;;10.10;99.90;;;;;;5059095;28;19920;-78
2022/10/12 08:04:41;;;;;;;;;;;10.20;99.90;;;;;;5058476;28;20038;-78
2022/10/12 08:07:10;;;;;;;;;;;10.30;99.90;;;;;;5058226;28;19917;-77
2022/10/12 08:09:35;;;;;;;;;;;10.40;99.90;;;;;;5058786;28;19909;-78
2022/10/12 08:12:01;;;;;;;;;;;10.50;99.90;;;;;;5058860;28;20003;-77
2022/10/12 08:14:27;;;;;;;;;;;10.60;99.90;;;;;;5058561;28;20422;-77
2022/10/12 08:16:52;;;;;;;;;;;10.70;99.90;;;;;;5058209;28;19995;-77
2022/10/12 08:19:18;;;;;;;;;;;10.80;99.90;;;;;;5056957;28;19913;-78
2022/10/12 08:21:44;;;;;;;;;;;10.90;99.90;;;;;;5058044;28;19909;-78
2022/10/12 08:24:10;;;;;;;;;;;11.00;99.90;;;;;;5057889;28;19913;-77
2022/10/12 08:26:36;;;;;;;;;;;11.10;99.90;;;;;;5035824;28;19976;-78
2022/10/12 08:29:02;;;;;;;;;;;11.20;99.90;;;;;;5041128;28;20347;-77
2022/10/12 08:31:28;;;;;;;;;;;11.30;99.90;;;;;;5055087;28;19915;-77
2022/10/12 08:33:55;;;;;;;;;;;11.30;99.90;;;;;;5055917;28;20277;-77
2022/10/12 08:36:20;;;;;;;;;;;11.40;99.90;;;;;;5057555;28;19909;-78
2022/10/12 08:38:49;;;;;;;;;;;11.50;99.90;;;;;;5057380;28;20378;-77
2022/10/12 08:41:39;;;;;;;;;;;11.60;99.90;;;;;;5056782;28;20424;-77
2022/10/12 08:44:23;;;;;;;;;;;11.70;99.90;;;;;;5056438;28;20000;-77
2022/10/12 08:46:48;;;;;;;;;;;11.60;99.90;;;;;;5057231;28;19939;-77
2022/10/12 08:49:18;;;;;;;;;;;11.70;99.90;;;;;;5055148;28;20336;-80
2022/10/12 08:51:50;;;;;;;;;;;11.80;99.90;;;;;;5036724;28;20003;-78
2022/10/12 08:54:19;;;;;;;;;;;11.80;99.90;;;;;;5053309;28;19912;-78
2022/10/12 08:56:45;;;;;;;;;;;11.90;99.90;;;;;;5053357;28;20330;-78
2022/10/12 08:59:16;;;;;;;;;;;11.90;99.90;;;;;;5054577;28;19959;-78
2022/10/12 09:01:47;;;;;;;;;;;12.00;99.90;;;;;;5055029;28;20273;-79
2022/10/12 09:04:23;;;;;;;;;;;12.20;99.90;;;;;;5054689;28;19912;-79
2022/10/12 09:06:51;;;;;;;;;;;12.40;99.90;;;;;;5036571;28;19924;-78
2022/10/12 09:09:17;;;;;;;;;;;12.60;99.90;;;;;;5053619;28;19999;-79
2022/10/12 09:11:57;;;;;;;;;;;12.80;99.90;;;;;;5053612;28;20400;-78
2022/10/12 09:14:26;;;;;;;;;;;12.90;99.90;;;;;;5036956;28;19924;-78
2022/10/12 09:16:53;;;;;;;;;;;13.10;99.90;;;;;;5055444;28;19909;-78
2022/10/12 09:19:20;;;;;;;;;;;13.40;99.90;;;;;;5054642;28;19967;-78
2022/10/12 09:21:47;;;;;;;;;;;13.60;99.90;;;;;;5055129;28;19909;-78
2022/10/12 09:24:15;;;;;;;;;;;13.70;99.90;;;;;;5055137;28;20354;-78
2022/10/12 09:26:41;;;;;;;;;;;13.90;99.90;;;;;;5027242;28;19913;-78
2022/10/12 09:29:26;;;;;;;;;;;13.90;99.90;;;;;;5043008;28;19913;-78
2022/10/12 09:32:01;;;;;;;;;;;13.80;99.90;;;;;;5043573;28;19909;-78
2022/10/12 09:34:27;;;;;;;;;;;13.90;99.90;;;;;;5052340;28;19909;-77
2022/10/12 09:36:54;;;;;;;;;;;14.00;99.90;;;;;;5054004;28;19954;-79
2022/10/12 09:39:22;;;;;;;;;;;14.10;99.90;;;;;;5054509;28;20309;-79
2022/10/12 09:41:48;;;;;;;;;;;14.10;99.90;;;;;;5054334;28;19909;-78
2022/10/12 09:44:18;;;;;;;;;;;14.00;99.90;;;;;;5054276;28;19908;-78
2022/10/12 09:46:50;;;;;;;;;;;13.90;99.90;;;;;;5054448;28;19909;-78
2022/10/12 09:49:15;;;;;;;;;;;13.90;99.90;;;;;;5057790;28;19909;-79
2022/10/12 09:51:41;;;;;;;;;;;14.00;99.90;;;;;;5057135;28;20248;-80
2022/10/12 09:54:13;;;;;;;;;;;14.20;99.90;;;;;;5039205;28;19909;-80
2022/10/12 09:56:45;;;;;;;;;;;14.20;99.90;;;;;;5056453;28;19919;-80
2022/10/12 09:59:25;;;;;;;;;;;14.50;99.90;;;;;;5056606;28;19924;-79
2022/10/12 10:01:56;;;;;;;;;;;14.70;99.90;;;;;;5055700;28;20366;-81
2022/10/12 10:04:22;;;;;;;;;;;14.90;99.90;;;;;;5038280;28;19920;-80
2022/10/12 10:06:48;;;;;;;;;;;15.10;99.90;;;;;;5049439;28;19917;-79
2022/10/12 10:09:25;;;;;;;;;;;15.30;99.90;;;;;;5039516;28;19916;-80
2022/10/12 10:11:50;;;;;;;;;;;16.30;99.90;;;;;;5048899;28;19909;-80
2022/10/12 10:14:16;;;;;;;;;;;17.90;99.90;;;;;;5038972;28;19955;-79
2022/10/12 10:16:48;;;;;;;;;;;18.50;99.90;;;;;;5038771;28;19944;-80
2022/10/12 10:19:18;;;;;;;;;;;18.40;99.90;;;;;;5057147;28;20389;-78
2022/10/12 10:21:44;;;;;;;;;;;18.40;99.90;;;;;;5037439;28;19909;-80
2022/10/12 10:24:24;;;;;;;;;;;18.60;99.90;;;;;;5057397;28;20385;-80
2022/10/12 10:26:52;;;;;;;;;;;18.80;99.90;;;;;;5057607;28;19909;-80
2022/10/12 10:29:21;;;;;;;;;;;19.10;99.90;;;;;;5040826;28;19913;-79
2022/10/12 10:31:47;;;;;;;;;;;19.20;99.90;;;;;;5057479;28;19908;-80
2022/10/12 10:34:18;;;;;;;;;;;19.00;99.90;;;;;;5057473;28;19908;-80
2022/10/12 10:36:44;;;;;;;;;;;18.60;99.90;;;;;;5039469;28;19978;-80
2022/10/12 10:39:24;;;;;;;;;;;18.50;99.90;;;;;;5038523;28;19912;-79
2022/10/12 10:41:52;;;;;;;;;;;18.50;99.90;;;;;;5055513;28;19909;-79
2022/10/12 10:44:30;;;;;;;;;;;18.30;99.90;;;;;;5060430;28;19916;-78
2022/10/12 10:46:58;;;;;;;;;;;18.20;99.90;;;;;;5057896;28;19955;-78
2022/10/12 10:49:36;;;;;;;;;;;18.10;99.90;;;;;;5056686;28;20392;-78
2022/10/12 10:52:02;;;;;;;;;;;18.10;99.90;;;;;;5057268;28;19909;-78
2022/10/12 10:54:30;;;;;;;;;;;18.20;99.90;;;;;;5056768;28;19992;-78
2022/10/12 10:57:01;;;;;;;;;;;18.30;99.90;;;;;;5056643;28;19962;-78
2022/10/12 10:59:32;;;;;;;;;;;18.30;99.90;;;;;;5039321;28;19935;-78
2022/10/12 11:02:01;;;;;;;;;;;18.20;99.90;;;;;;5056618;28;19915;-78
2022/10/12 11:04:29;;;;;;;;;;;18.20;99.90;;;;;;5056604;28;20281;-77
2022/10/12 11:06:58;;;;;;;;;;;18.50;99.90;;;;;;5107774;22;19924;-83
2022/10/12 11:09:28;;;;;;;;;;;18.90;99.90;;;;;;5095906;28;19912;-84
2022/10/12 11:11:56;;;;;;;;;;;19.40;99.90;;;;;;5077557;28;19908;-83
2022/10/12 11:14:26;;;;;;;;;;;19.50;99.90;;;;;;5065440;28;19916;-84
2022/10/12 11:16:54;;;;;;;;;;;18.80;99.90;;;;;;5057542;28;19912;-84
2022/10/12 11:19:38;;;;;;;;;;;18.70;99.90;;;;;;5057687;28;19916;-83
2022/10/12 11:22:09;;;;;;;;;;;18.70;99.90;;;;;;5075631;28;19909;-84
2022/10/12 11:24:46;;;;;;;;;;;18.80;99.90;;;;;;5077822;28;20543;-84
2022/10/12 11:27:14;;;;;;;;;;;19.20;99.90;;;;;;5060453;28;19920;-84
2022/10/12 11:29:40;;;;;;;;;;;19.20;99.90;;;;;;5057562;28;20354;-84
2022/10/12 11:32:24;;;;;;;;;;;19.10;99.90;;;;;;5057582;28;19968;-84
2022/10/12 11:34:53;;;;;;;;;;;19.10;99.90;;;;;;5075231;28;20254;-83
2022/10/12 11:37:21;;;;;;;;;;;19.00;99.90;;;;;;5057279;28;19947;-83
2022/10/12 11:39:52;;;;;;;;;;;18.80;99.90;;;;;;5057303;28;19959;-83
2022/10/12 11:42:29;;;;;;;;;;;18.70;99.90;;;;;;5057702;28;19944;-84
2022/10/12 11:44:55;;;;;;;;;;;18.70;99.90;;;;;;5057401;28;19908;-84
2022/10/12 11:47:30;;;;;;;;;;;18.50;99.90;;;;;;5057672;28;19912;-83
2022/10/12 11:50:03;;;;;;;;;;;18.40;99.90;;;;;;5077429;28;20301;-83
2022/10/12 11:52:36;;;;;;;;;;;18.50;99.90;;;;;;5057015;28;19908;-83
2022/10/12 11:55:07;;;;;;;;;;;18.50;99.90;;;;;;5073902;28;20007;-84
2022/10/12 11:57:34;;;;;;;;;;;18.60;99.90;;;;;;5077367;28;20000;-83
2022/10/12 12:00:02;;;;;;;;;;;18.70;99.90;;;;;;5096118;28;20365;-84
2022/10/12 12:02:32;;;;;;;;;;;18.60;99.90;;;;;;5077647;28;19909;-84
2022/10/12 12:04:58;;;;;;;;;;;18.60;99.90;;;;;;5076407;28;19908;-84
2022/10/12 12:07:42;;;;;;;;;;;18.50;99.90;;;;;;5076532;28;19927;-84
2022/10/12 12:10:33;;;;;;;;;;;18.60;99.90;;;;;;5076517;28;19908;-82
2022/10/12 12:13:11;;;;;;;;;;;18.50;99.90;;;;;;5074513;28;19908;-83
2022/10/12 12:15:37;;;;;;;;;;;18.50;99.90;;;;;;5094825;28;20373;-84
2022/10/12 12:18:23;;;;;;;;;;;18.70;99.90;;;;;;5076616;28;19908;-84
2022/10/12 12:20:48;;;;;;;;;;;19.00;99.90;;;;;;5076088;28;19956;-83
2022/10/12 12:23:17;;;;;;;;;;;19.90;99.90;;;;;;5094979;28;19946;-85
2022/10/12 12:25:42;;;;;;;;;;;20.40;99.90;;;;;;5075894;28;19908;-85
2022/10/12 12:28:18;;;;;;;;;;;20.70;99.90;;;;;;5076040;28;19968;-83
2022/10/12 12:30:55;;;;;;;;;;;20.50;99.90;;;;;;5094321;28;19998;-83
2022/10/12 12:33:26;;;;;;;;;;;20.70;99.90;;;;;;5076309;28;20010;-84
2022/10/12 12:35:53;;;;;;;;;;;21.20;99.90;;;;;;5093952;28;19996;-84
2022/10/12 12:38:22;;;;;;;;;;;21.00;99.90;;;;;;5094401;28;19913;-85
2022/10/12 12:40:56;;;;;;;;;;;20.60;99.90;;;;;;5075761;28;19908;-84
2022/10/12 12:43:28;;;;;;;;;;;20.30;99.90;;;;;;5094260;28;20273;-85
2022/10/12 12:46:00;;;;;;;;;;;20.20;99.90;;;;;;5093934;28;19915;-85
2022/10/12 12:48:38;;;;;;;;;;;20.00;99.90;;;;;;5076497;28;19915;-84
2022/10/12 12:51:23;;;;;;;;;;;19.80;99.90;;;;;;5075903;28;19908;-86
2022/10/12 12:53:58;;;;;;;;;;;19.80;99.90;;;;;;5093763;28;19908;-85
2022/10/12 12:56:29;;;;;;;;;;;20.10;99.90;;;;;;5076238;28;19933;-85
2022/10/12 12:59:14;;;;;;;;;;;20.20;99.90;;;;;;5075956;28;20372;-84
2022/10/12 13:01:58;;;;;;;;;;;20.30;99.90;;;;;;5075552;28;20329;-85
2022/10/12 13:04:26;;;;;;;;;;;20.30;99.90;;;;;;5075646;28;19943;-84
2022/10/12 13:06:58;;;;;;;;;;;20.20;99.90;;;;;;5093520;28;19966;-84
2022/10/12 13:09:31;;;;;;;;;;;20.20;99.90;;;;;;5075564;28;19920;-84
2022/10/12 13:11:59;;;;;;;;;;;20.10;99.90;;;;;;5075662;28;19912;-84
2022/10/12 13:14:34;;;;;;;;;;;20.00;99.90;;;;;;5075106;28;19994;-83
2022/10/12 13:17:19;;;;;;;;;;;19.90;99.90;;;;;;5093427;28;19908;-83
2022/10/12 13:19:45;;;;;;;;;;;19.80;99.90;;;;;;5076452;28;20003;-84
2022/10/12 13:22:27;;;;;;;;;;;19.70;99.90;;;;;;5075574;28;19958;-84
2022/10/12 13:24:55;;;;;;;;;;;19.80;99.90;;;;;;5075157;28;20288;-83
2022/10/12 13:27:24;;;;;;;;;;;20.10;99.90;;;;;;5093852;28;20356;-85
2022/10/12 13:29:59;;;;;;;;;;;20.20;99.90;;;;;;5093329;28;19982;-88
2022/10/12 13:32:33;;;;;;;;;;;20.30;99.90;;;;;;5093544;28;19994;-86
2022/10/12 13:35:05;;;;;;;;;;;20.20;99.90;;;;;;5074997;28;20328;-85
2022/10/12 13:37:32;;;;;;;;;;;20.00;99.90;;;;;;5074859;28;19914;-85
2022/10/12 13:39:57;;;;;;;;;;;19.90;99.90;;;;;;5074919;28;19934;-85
2022/10/12 13:42:25;;;;;;;;;;;19.90;99.90;;;;;;5074595;28;20007;-86
2022/10/12 13:44:51;;;;;;;;;;;19.90;99.90;;;;;;5074759;28;19912;-85
2022/10/12 13:47:23;;;;;;;;;;;19.90;99.90;;;;;;5093409;28;20405;-84
2022/10/12 13:49:49;;;;;;;;;;;19.90;99.90;;;;;;5075249;28;19908;-84
2022/10/12 13:52:18;;;;;;;;;;;19.90;99.90;;;;;;5092944;28;19931;-84
2022/10/12 13:54:45;;;;;;;;;;;20.00;99.90;;;;;;5092676;28;19908;-86
2022/10/12 13:57:19;;;;;;;;;;;20.00;99.90;;;;;;5074769;28;19912;-82
2022/10/12 13:59:46;;;;;;;;;;;20.00;99.90;;;;;;5093903;28;20057;-84
2022/10/12 14:02:16;;;;;;;;;;;20.10;99.90;;;;;;5074958;28;19915;-86
2022/10/12 14:04:42;;;;;;;;;;;20.00;99.90;;;;;;5092504;28;19995;-83
2022/10/12 14:07:14;;;;;;;;;;;20.00;99.90;;;;;;5074063;28;20380;-85
2022/10/12 14:09:41;;;;;;;;;;;20.10;99.90;;;;;;5074806;28;19954;-86
2022/10/12 14:12:07;;;;;;;;;;;20.30;99.90;;;;;;5073640;28;19908;-85
2022/10/12 14:14:34;;;;;;;;;;;20.50;99.90;;;;;;5084087;28;20003;-84
2022/10/12 14:17:00;;;;;;;;;;;20.50;99.90;;;;;;5075035;28;19908;-86
2022/10/12 14:19:38;;;;;;;;;;;20.90;99.90;;;;;;5074769;28;19912;-86
2022/10/12 14:22:03;;;;;;;;;;;21.50;99.90;;;;;;5074158;28;19908;-86
2022/10/12 14:24:29;;;;;;;;;;;22.10;99.90;;;;;;5093919;28;19916;-86
2022/10/12 14:26:56;;;;;;;;;;;22.40;99.90;;;;;;5079461;28;19908;-85
2022/10/12 14:29:25;;;;;;;;;;;22.60;99.90;;;;;;5074679;28;19966;-85
2022/10/12 14:31:55;;;;;;;;;;;23.10;99.90;;;;;;5073825;28;19912;-85
2022/10/12 14:34:26;;;;;;;;;;;23.60;99.90;;;;;;5092230;28;19912;-85